createdAt,value
2022-08-04T00:00:01.799Z,21
2022-08-04T00:01:01.378Z,21.2
2022-08-04T00:02:02.017Z,21.4
2022-08-04T00:03:01.631Z,21.3
2022-08-04T00:04:01.201Z,21.4
2022-08-04T00:05:01.776Z,21.3
2022-08-04T00:06:01.483Z,21.3
2022-08-04T00:07:01.996Z,21.5
2022-08-04T00:08:01.585Z,21.5
2022-08-04T00:09:01.158Z,21.6
2022-08-04T00:10:01.734Z,21.8
2022-08-04T00:11:01.309Z,21.5
2022-08-04T00:12:01.890Z,21.5
2022-08-04T00:13:01.477Z,21.6
2022-08-04T00:14:02.724Z,21.4
2022-08-04T00:15:01.887Z,21.3
2022-08-04T00:16:01.293Z,21.4
2022-08-04T00:17:01.872Z,21.5
2022-08-04T00:18:01.452Z,21.4
2022-08-04T00:19:02.043Z,21.4
2022-08-04T00:20:02.092Z,21.4
2022-08-04T00:21:01.782Z,21.2
2022-08-04T00:22:01.371Z,21.2
2022-08-04T00:23:01.944Z,21.1
2022-08-04T00:24:11.255Z,21.1
2022-08-04T00:25:02.055Z,21.1
2022-08-04T00:26:01.645Z,20.9
2022-08-04T00:27:01.220Z,20.9
2022-08-04T00:28:01.795Z,20.9
2022-08-04T00:29:01.367Z,20.9
2022-08-04T00:30:01.939Z,20.9
2022-08-04T00:31:01.531Z,20.8
2022-08-04T00:32:02.085Z,20.8
2022-08-04T00:33:01.681Z,20.7
2022-08-04T00:34:01.255Z,20.7
2022-08-04T00:35:01.859Z,20.6
2022-08-04T00:36:01.450Z,20.5
2022-08-04T00:37:02.027Z,20.5
2022-08-04T00:38:01.620Z,20.6
2022-08-04T00:39:01.201Z,20.7
2022-08-04T00:40:02.054Z,20.8
2022-08-04T00:41:01.433Z,20.7
2022-08-04T00:42:02.014Z,20.8
2022-08-04T00:43:01.602Z,20.8
2022-08-04T00:44:01.163Z,20.8
2022-08-04T00:45:01.736Z,20.8
2022-08-04T00:46:15.976Z,21
2022-08-04T00:47:01.850Z,20.9
2022-08-04T00:48:01.444Z,21
2022-08-04T00:49:02.013Z,20.8
2022-08-04T00:50:01.584Z,20.5
2022-08-04T00:51:02.159Z,20.7
2022-08-04T00:52:32.948Z,20.7
2022-08-04T00:53:01.287Z,20.4
2022-08-04T00:54:01.913Z,20.4
2022-08-04T00:55:03.291Z,20.4
2022-08-04T00:56:02.022Z,20.5
2022-08-04T00:57:01.596Z,20.8
2022-08-04T00:58:01.171Z,20.8
2022-08-04T00:59:01.766Z,20.9
2022-08-04T01:00:01.356Z,20.8
2022-08-04T01:01:01.958Z,20.8
2022-08-04T01:02:01.584Z,20.8
2022-08-04T01:03:02.181Z,20.6
2022-08-04T01:04:01.758Z,20.6
2022-08-04T01:05:01.332Z,20.5
2022-08-04T01:06:01.914Z,20.4
2022-08-04T01:07:01.503Z,20.6
2022-08-04T01:08:02.094Z,20.8
2022-08-04T01:09:01.601Z,20.8
2022-08-04T01:10:01.177Z,20.7
2022-08-04T01:11:01.750Z,20.5
2022-08-04T01:12:01.328Z,20.5
2022-08-04T01:13:01.918Z,20.6
2022-08-04T01:14:01.456Z,20.6
2022-08-04T01:15:02.073Z,20.6
2022-08-04T01:16:01.682Z,20.5
2022-08-04T01:17:01.250Z,20.5
2022-08-04T01:18:01.829Z,20.3
2022-08-04T01:19:01.424Z,20.4
2022-08-04T01:20:01.989Z,20.4
2022-08-04T01:21:01.576Z,20.5
2022-08-04T01:22:02.150Z,21.1
2022-08-04T01:23:01.724Z,20.6
2022-08-04T01:24:01.297Z,20.5
2022-08-04T01:25:02.292Z,20.3
2022-08-04T01:26:01.419Z,20.2
2022-08-04T01:27:02.114Z,20.3
2022-08-04T01:28:01.393Z,20.2
2022-08-04T01:29:01.965Z,20.1
2022-08-04T01:30:01.646Z,19.9
2022-08-04T01:31:01.208Z,20
2022-08-04T01:32:01.782Z,20.2
2022-08-04T01:33:01.375Z,20.3
2022-08-04T01:34:04.211Z,20.4
2022-08-04T01:35:01.501Z,20.4
2022-08-04T01:36:02.099Z,20.4
2022-08-04T01:37:01.717Z,20.1
2022-08-04T01:38:01.295Z,20.3
2022-08-04T01:39:01.980Z,20.5
2022-08-04T01:40:01.546Z,20.3
2022-08-04T01:41:02.125Z,20.3
2022-08-04T01:42:01.699Z,20.3
2022-08-04T01:43:01.274Z,20.3
2022-08-04T01:44:01.862Z,20.2
2022-08-04T01:45:01.465Z,20.2
2022-08-04T01:46:02.049Z,20.2
2022-08-04T01:47:01.640Z,20.1
2022-08-04T01:48:01.213Z,20
2022-08-04T01:49:01.791Z,19.8
2022-08-04T01:50:01.370Z,19.9
2022-08-04T01:51:01.959Z,19.7
2022-08-04T01:52:01.594Z,19.7
2022-08-04T01:53:02.119Z,19.7
2022-08-04T01:54:01.695Z,19.9
2022-08-04T01:55:01.327Z,19.5
2022-08-04T01:56:01.874Z,19.5
2022-08-04T01:57:01.464Z,19.4
2022-08-04T01:58:02.002Z,19.4
2022-08-04T01:59:01.576Z,19.5
2022-08-04T02:00:02.156Z,19.8
2022-08-04T02:01:01.809Z,20
2022-08-04T02:02:01.512Z,20.1
2022-08-04T02:03:02.018Z,20.1
2022-08-04T02:04:18.031Z,20
2022-08-04T02:05:02.147Z,19.8
2022-08-04T02:06:02.695Z,19.8
2022-08-04T02:07:01.293Z,20.1
2022-08-04T02:08:01.887Z,20.3
2022-08-04T02:09:01.461Z,20
2022-08-04T02:10:02.055Z,20
2022-08-04T02:11:01.650Z,19.9
2022-08-04T02:12:01.217Z,19.8
2022-08-04T02:13:01.792Z,19.8
2022-08-04T02:14:01.368Z,20
2022-08-04T02:15:01.941Z,19.8
2022-08-04T02:16:01.534Z,19.6
2022-08-04T02:17:02.119Z,19.7
2022-08-04T02:18:01.691Z,19.9
2022-08-04T02:19:01.263Z,19.9
2022-08-04T02:20:01.840Z,19.9
2022-08-04T02:21:01.417Z,19.8
2022-08-04T02:22:02.012Z,19.9
2022-08-04T02:23:01.586Z,20
2022-08-04T02:24:02.165Z,19.9
2022-08-04T02:25:01.739Z,19.8
2022-08-04T02:26:01.312Z,19.9
2022-08-04T02:27:01.903Z,19.9
2022-08-04T02:28:01.497Z,19.8
2022-08-04T02:29:02.075Z,19.9
2022-08-04T02:30:01.648Z,20
2022-08-04T02:31:01.222Z,20.1
2022-08-04T02:32:01.816Z,20
2022-08-04T02:33:01.409Z,19.9
2022-08-04T02:34:01.966Z,20
2022-08-04T02:35:01.549Z,19.8
2022-08-04T02:36:02.295Z,19.7
2022-08-04T02:37:02.050Z,19.8
2022-08-04T02:38:01.394Z,20
2022-08-04T02:39:02.038Z,20
2022-08-04T02:40:01.631Z,19.8
2022-08-04T02:41:02.198Z,19.9
2022-08-04T02:42:01.769Z,19.9
2022-08-04T02:43:01.342Z,19.9
2022-08-04T02:44:01.921Z,20
2022-08-04T02:45:01.514Z,20.1
2022-08-04T02:46:02.083Z,20
2022-08-04T02:47:01.657Z,20.1
2022-08-04T02:48:08.548Z,20.1
2022-08-04T02:49:01.783Z,20.2
2022-08-04T02:50:01.362Z,20.3
2022-08-04T02:51:01.942Z,20.3
2022-08-04T02:52:01.518Z,20.1
2022-08-04T02:53:02.100Z,20
2022-08-04T02:54:01.691Z,19.9
2022-08-04T02:55:01.265Z,19.9
2022-08-04T02:56:01.905Z,20
2022-08-04T02:57:01.486Z,20
2022-08-04T02:58:02.066Z,20.1
2022-08-04T02:59:01.658Z,20
2022-08-04T03:00:01.221Z,20.1
2022-08-04T03:01:01.856Z,20.1
2022-08-04T03:02:01.456Z,19.9
2022-08-04T03:03:02.035Z,19.9
2022-08-04T03:04:01.624Z,20
2022-08-04T03:05:02.232Z,20
2022-08-04T03:06:02.010Z,20.1
2022-08-04T03:07:01.440Z,20
2022-08-04T03:08:02.010Z,20.1
2022-08-04T03:09:01.606Z,20.2
2022-08-04T03:10:02.185Z,20.1
2022-08-04T03:11:01.821Z,20.2
2022-08-04T03:12:01.402Z,20.3
2022-08-04T03:13:01.977Z,20.3
2022-08-04T03:14:01.570Z,20.3
2022-08-04T03:15:02.153Z,20.2
2022-08-04T03:16:01.802Z,20.2
2022-08-04T03:17:01.586Z,20.3
2022-08-04T03:18:01.949Z,20.3
2022-08-04T03:19:01.547Z,20.3
2022-08-04T03:20:02.133Z,20.2
2022-08-04T03:21:01.718Z,20.2
2022-08-04T03:22:01.298Z,20.2
2022-08-04T03:23:13.952Z,20.2
2022-08-04T03:24:01.428Z,19.9
2022-08-04T03:25:02.028Z,19.8
2022-08-04T03:26:01.605Z,19.7
2022-08-04T03:27:02.179Z,19.7
2022-08-04T03:28:01.718Z,19.6
2022-08-04T03:29:01.313Z,19.5
2022-08-04T03:30:01.928Z,19.7
2022-08-04T03:31:01.519Z,19.6
2022-08-04T03:32:02.093Z,19.5
2022-08-04T03:33:01.663Z,19.6
2022-08-04T03:34:01.255Z,19.5
2022-08-04T03:35:01.745Z,19.5
2022-08-04T03:36:01.323Z,19.5
2022-08-04T03:37:01.896Z,19.4
2022-08-04T03:38:01.470Z,19.5
2022-08-04T03:39:02.112Z,19.5
2022-08-04T03:40:01.717Z,19.5
2022-08-04T03:41:01.279Z,19.4
2022-08-04T03:42:03.797Z,19.4
2022-08-04T03:43:01.405Z,19.5
2022-08-04T03:44:01.981Z,19.5
2022-08-04T03:45:01.559Z,19.5
2022-08-04T03:46:02.133Z,19.5
2022-08-04T03:47:01.722Z,19.5
2022-08-04T03:48:01.297Z,19.5
2022-08-04T03:49:01.871Z,19.5
2022-08-04T03:50:01.460Z,19.2
2022-08-04T03:51:01.996Z,19.2
2022-08-04T03:52:01.586Z,19.1
2022-08-04T03:53:02.155Z,19.1
2022-08-04T03:54:01.734Z,19.1
2022-08-04T03:55:01.310Z,18.8
2022-08-04T03:56:01.884Z,18.8
2022-08-04T03:57:01.515Z,18.9
2022-08-04T03:58:02.042Z,19.1
2022-08-04T03:59:01.621Z,19.1
2022-08-04T04:00:02.194Z,19.2
2022-08-04T04:01:01.791Z,19.2
2022-08-04T04:02:06.473Z,18.8
2022-08-04T04:03:01.918Z,18.9
2022-08-04T04:04:01.494Z,19
2022-08-04T04:05:02.067Z,19
2022-08-04T04:06:02.244Z,19.1
2022-08-04T04:07:01.700Z,19.2
2022-08-04T04:08:01.800Z,18.9
2022-08-04T04:09:01.775Z,19
2022-08-04T04:10:06.097Z,19
2022-08-04T04:11:01.692Z,19.1
2022-08-04T04:12:01.275Z,19
2022-08-04T04:13:01.849Z,18.8
2022-08-04T04:14:01.424Z,18.7
2022-08-04T04:15:01.998Z,18.8
2022-08-04T04:16:01.590Z,18.7
2022-08-04T04:17:02.156Z,18.7
2022-08-04T04:18:01.733Z,18.9
2022-08-04T04:19:01.306Z,18.9
2022-08-04T04:20:01.879Z,19
2022-08-04T04:21:01.475Z,19.1
2022-08-04T04:22:02.038Z,19.2
2022-08-04T04:23:01.613Z,19.2
2022-08-04T04:24:02.189Z,19.1
2022-08-04T04:25:01.775Z,19
2022-08-04T04:26:01.368Z,18.9
2022-08-04T04:27:01.938Z,19
2022-08-04T04:28:44.039Z,19.2
2022-08-04T04:29:03.475Z,19.2
2022-08-04T04:30:02.185Z,19.3
2022-08-04T04:31:01.361Z,19
2022-08-04T04:32:01.945Z,18.9
2022-08-04T04:33:01.521Z,19
2022-08-04T04:34:02.099Z,19.1
2022-08-04T04:35:01.670Z,19.1
2022-08-04T04:36:01.262Z,18.8
2022-08-04T04:37:01.830Z,18.9
2022-08-04T04:38:01.406Z,19
2022-08-04T04:39:02.024Z,19
2022-08-04T04:40:03.492Z,18.9
2022-08-04T04:41:02.199Z,19.1
2022-08-04T04:42:01.773Z,19.2
2022-08-04T04:43:01.349Z,19.3
2022-08-04T04:44:01.923Z,19.3
2022-08-04T04:45:01.514Z,19.2
2022-08-04T04:46:02.105Z,19.3
2022-08-04T04:47:01.696Z,19.5
2022-08-04T04:48:07.860Z,19.4
2022-08-04T04:49:01.800Z,19.5
2022-08-04T04:50:01.374Z,19.6
2022-08-04T04:51:01.970Z,19.6
2022-08-04T04:52:01.546Z,19.5
2022-08-04T04:53:02.118Z,19.6
2022-08-04T04:54:01.691Z,19.7
2022-08-04T04:55:01.264Z,19.6
2022-08-04T04:56:01.855Z,19.6
2022-08-04T04:57:01.445Z,19.7
2022-08-04T04:58:02.048Z,19.6
2022-08-04T04:59:01.623Z,19.6
2022-08-04T05:00:02.204Z,19.6
2022-08-04T05:01:01.789Z,19.7
2022-08-04T05:02:01.380Z,19.8
2022-08-04T05:03:04.966Z,19.8
2022-08-04T05:04:01.487Z,20
2022-08-04T05:05:02.129Z,20
2022-08-04T05:06:01.707Z,20.1
2022-08-04T05:07:01.298Z,20.2
2022-08-04T05:08:01.866Z,20.3
2022-08-04T05:09:01.408Z,20.4
2022-08-04T05:10:01.983Z,20.5
2022-08-04T05:11:01.560Z,20.4
2022-08-04T05:12:02.557Z,20.6
2022-08-04T05:14:34.164Z,21
2022-08-04T05:14:34.217Z,20.8
2022-08-04T05:15:01.768Z,21.1
2022-08-04T05:16:01.349Z,21.3
2022-08-04T05:17:01.938Z,21.3
2022-08-04T05:18:01.528Z,21.5
2022-08-04T05:19:02.095Z,21.6
2022-08-04T05:20:01.673Z,21.8
2022-08-04T05:21:02.249Z,21.8
2022-08-04T05:22:01.839Z,21.9
2022-08-04T05:23:01.429Z,21.9
2022-08-04T05:24:02.000Z,22
2022-08-04T05:25:01.573Z,22
2022-08-04T05:26:02.164Z,22
2022-08-04T05:27:01.750Z,22
2022-08-04T05:28:01.341Z,22.3
2022-08-04T05:29:01.906Z,22.2
2022-08-04T05:30:01.485Z,22.3
2022-08-04T05:31:02.065Z,22.2
2022-08-04T05:32:01.646Z,22.2
2022-08-04T05:33:02.239Z,22.3
2022-08-04T05:34:01.816Z,22.3
2022-08-04T05:35:01.393Z,22.3
2022-08-04T05:36:18.147Z,22.5
2022-08-04T05:37:01.506Z,22.6
2022-08-04T05:38:02.106Z,22.8
2022-08-04T05:39:01.741Z,22.8
2022-08-04T05:40:01.263Z,22.9
2022-08-04T05:41:01.840Z,23
2022-08-04T05:42:04.275Z,23.2
2022-08-04T05:43:01.975Z,23.3
2022-08-04T05:44:01.566Z,23.3
2022-08-04T05:45:02.130Z,23.3
2022-08-04T05:46:01.707Z,23.3
2022-08-04T05:47:01.286Z,23.3
2022-08-04T05:48:01.874Z,23.3
2022-08-04T05:49:01.515Z,23.4
2022-08-04T05:50:02.524Z,23.5
2022-08-04T05:51:01.813Z,23.5
2022-08-04T05:52:01.324Z,23.6
2022-08-04T05:53:01.922Z,23.7
2022-08-04T05:54:01.502Z,23.8
2022-08-04T05:55:02.094Z,23.9
2022-08-04T05:56:01.696Z,24
2022-08-04T05:57:02.260Z,24
2022-08-04T05:58:01.878Z,24.2
2022-08-04T05:59:01.489Z,24.2
2022-08-04T06:00:10.443Z,24.4
2022-08-04T06:01:01.636Z,24.4
2022-08-04T06:02:02.277Z,24.4
2022-08-04T06:03:01.880Z,24.4
2022-08-04T06:04:01.478Z,24.5
2022-08-04T06:05:02.033Z,24.7
2022-08-04T06:06:01.615Z,24.7
2022-08-04T06:07:02.203Z,24.8
2022-08-04T06:08:04.728Z,24.7
2022-08-04T06:09:01.344Z,24.7
2022-08-04T06:10:01.923Z,24.8
2022-08-04T06:11:01.499Z,24.9
2022-08-04T06:12:04.122Z,24.8
2022-08-04T06:13:01.624Z,24.8
2022-08-04T06:14:02.195Z,24.9
2022-08-04T06:15:01.771Z,24.9
2022-08-04T06:16:01.546Z,25
2022-08-04T06:17:01.951Z,25
2022-08-04T06:18:34.490Z,25.2
2022-08-04T06:20:01.624Z,25.3
2022-08-04T06:20:18.517Z,25.3
2022-08-04T06:21:01.482Z,25.3
2022-08-04T06:22:02.037Z,25.3
2022-08-04T06:23:01.613Z,25.3
2022-08-04T06:24:04.436Z,25.4
2022-08-04T06:25:01.734Z,25.4
2022-08-04T06:26:01.311Z,25.5
2022-08-04T06:27:01.899Z,25.5
2022-08-04T06:28:01.489Z,25.4
2022-08-04T06:29:02.045Z,25.6
2022-08-04T06:30:01.619Z,25.8
2022-08-04T06:31:02.193Z,25.9
2022-08-04T06:32:26.336Z,26
2022-08-04T06:33:03.199Z,26
2022-08-04T06:34:01.822Z,26
2022-08-04T06:35:01.397Z,26.1
2022-08-04T06:36:01.973Z,26.1
2022-08-04T06:37:01.551Z,26.1
2022-08-04T06:38:02.248Z,26.1
2022-08-04T06:39:01.844Z,26
2022-08-04T06:40:01.352Z,26
2022-08-04T06:41:01.925Z,26
2022-08-04T06:42:14.953Z,26.3
2022-08-04T06:43:02.059Z,26.2
2022-08-04T06:44:01.631Z,26.3
2022-08-04T06:45:02.209Z,26.4
2022-08-04T06:46:01.782Z,26.5
2022-08-04T06:47:01.357Z,26.6
2022-08-04T06:48:01.910Z,26.8
2022-08-04T06:49:01.502Z,26.9
2022-08-04T06:51:23.682Z,27
2022-08-04T06:51:29.019Z,26.8
2022-08-04T06:52:02.143Z,27.1
2022-08-04T06:53:01.735Z,27.2
2022-08-04T06:54:01.311Z,27.4
2022-08-04T06:55:01.886Z,27.5
2022-08-04T06:56:01.459Z,27.5
2022-08-04T06:57:02.032Z,27.7
2022-08-04T06:58:03.226Z,27.8
2022-08-04T06:59:05.597Z,27.9
2022-08-04T07:00:01.231Z,27.7
2022-08-04T07:01:01.367Z,27.9
2022-08-04T07:02:00.993Z,28
2022-08-04T07:03:01.531Z,28
2022-08-04T07:04:01.124Z,27.9
2022-08-04T07:05:03.375Z,28
2022-08-04T07:06:05.932Z,27.9
2022-08-04T07:07:00.771Z,27.9
2022-08-04T07:08:01.367Z,27.9
2022-08-04T07:09:00.940Z,28.2
2022-08-04T07:10:01.522Z,28.3
2022-08-04T07:11:01.106Z,28.4
2022-08-04T07:12:00.678Z,28.5
2022-08-04T07:13:01.270Z,28.7
2022-08-04T07:14:00.845Z,28.7
2022-08-04T07:15:01.420Z,28.8
2022-08-04T07:16:00.994Z,28.9
2022-08-04T07:17:01.584Z,28.7
2022-08-04T07:18:01.159Z,28.5
2022-08-04T07:19:09.656Z,28.3
2022-08-04T07:20:01.268Z,28.3
2022-08-04T07:21:00.844Z,28.4
2022-08-04T07:22:06.501Z,28.7
2022-08-04T07:23:00.973Z,28.8
2022-08-04T07:24:01.572Z,29
2022-08-04T07:25:01.286Z,28.9
2022-08-04T07:26:11.513Z,28.8
2022-08-04T07:27:01.325Z,28.6
2022-08-04T07:28:00.898Z,28.4
2022-08-04T07:29:01.489Z,28.6
2022-08-04T07:30:01.062Z,28.8
2022-08-04T07:31:00.709Z,29.1
2022-08-04T07:32:01.223Z,29.4
2022-08-04T07:33:00.797Z,29.5
2022-08-04T07:34:17.479Z,29.7
2022-08-04T07:35:00.928Z,29.8
2022-08-04T07:36:04.330Z,29.8
2022-08-04T07:37:01.038Z,30
2022-08-04T07:38:00.817Z,30
2022-08-04T07:39:01.241Z,30
2022-08-04T07:40:00.939Z,30.2
2022-08-04T07:41:01.449Z,30.1
2022-08-04T07:42:01.281Z,30
2022-08-04T07:43:01.421Z,30.1
2022-08-04T07:44:01.013Z,30
2022-08-04T07:45:01.588Z,29.7
2022-08-04T07:46:01.162Z,29.7
2022-08-04T07:47:00.756Z,29.6
2022-08-04T07:48:04.457Z,29.5
2022-08-04T07:49:00.859Z,29.5
2022-08-04T07:50:01.445Z,29.7
2022-08-04T07:51:01.017Z,29.9
2022-08-04T07:52:01.592Z,30
2022-08-04T07:53:22.665Z,30
2022-08-04T07:54:00.714Z,30.1
2022-08-04T07:55:01.308Z,29.9
2022-08-04T07:56:00.883Z,29.8
2022-08-04T07:57:01.471Z,30
2022-08-04T07:58:01.077Z,30.1
2022-08-04T07:59:00.628Z,30
2022-08-04T08:00:01.244Z,30.1
2022-08-04T08:01:00.817Z,30.2
2022-08-04T08:02:01.414Z,30.2
2022-08-04T08:03:01.034Z,30.3
2022-08-04T08:04:01.623Z,30.2
2022-08-04T08:05:01.247Z,30.3
2022-08-04T08:06:18.298Z,30.4
2022-08-04T08:07:01.355Z,30.4
2022-08-04T08:08:00.926Z,30.1
2022-08-04T08:09:02.225Z,29.7
2022-08-04T08:10:01.033Z,29.3
2022-08-04T08:11:01.620Z,29.3
2022-08-04T08:12:34.713Z,29.7
2022-08-04T08:13:00.728Z,30.1
2022-08-04T08:14:01.301Z,30
2022-08-04T08:15:00.875Z,29.9
2022-08-04T08:16:01.470Z,29.8
2022-08-04T08:17:01.048Z,29.9
2022-08-04T08:18:01.619Z,30
2022-08-04T08:19:01.208Z,30
2022-08-04T08:20:00.793Z,30
2022-08-04T08:21:01.369Z,30
2022-08-04T08:22:01.747Z,30.2
2022-08-04T08:23:01.559Z,30.1
2022-08-04T08:24:01.156Z,29.9
2022-08-04T08:25:00.747Z,30.3
2022-08-04T08:26:01.321Z,30.2
2022-08-04T08:27:00.897Z,30.4
2022-08-04T08:28:01.485Z,30.4
2022-08-04T08:29:01.057Z,30.3
2022-08-04T08:30:00.658Z,30.2
2022-08-04T08:31:01.229Z,30.1
2022-08-04T08:32:07.211Z,30.2
2022-08-04T08:33:01.305Z,30.1
2022-08-04T08:34:00.881Z,30.1
2022-08-04T08:35:01.471Z,30.1
2022-08-04T08:36:01.046Z,29.8
2022-08-04T08:37:01.618Z,30.1
2022-08-04T08:38:01.192Z,30.1
2022-08-04T08:39:01.477Z,30.2
2022-08-04T08:40:01.110Z,29.8
2022-08-04T08:41:00.686Z,29.7
2022-08-04T08:42:01.258Z,29.8
2022-08-04T08:43:03.640Z,29.8
2022-08-04T08:44:05.250Z,30
2022-08-04T08:45:00.922Z,30.1
2022-08-04T08:46:01.497Z,30.2
2022-08-04T08:47:01.086Z,30
2022-08-04T08:48:05.665Z,30.3
2022-08-04T08:49:01.189Z,30.5
2022-08-04T08:50:04.256Z,30.6
2022-08-04T08:51:01.314Z,30.7
2022-08-04T08:52:00.916Z,30.6
2022-08-04T08:53:02.878Z,30.5
2022-08-04T08:54:00.668Z,30.5
2022-08-04T08:55:01.243Z,30.6
2022-08-04T08:56:00.837Z,30.5
2022-08-04T08:57:01.402Z,30.3
2022-08-04T08:58:00.973Z,30.4
2022-08-04T08:59:01.547Z,30.9
2022-08-04T09:00:01.123Z,30.9
2022-08-04T09:01:00.737Z,30.9
2022-08-04T09:02:01.326Z,30.9
2022-08-04T09:03:03.892Z,31.3
2022-08-04T09:04:01.491Z,31.5
2022-08-04T09:05:01.063Z,31.4
2022-08-04T09:06:01.636Z,31.3
2022-08-04T09:07:01.207Z,31.2
2022-08-04T09:08:00.780Z,31.3
2022-08-04T09:09:01.366Z,31.3
2022-08-04T09:10:00.938Z,31.6
2022-08-04T09:11:01.520Z,31.6
2022-08-04T09:12:01.093Z,31.3
2022-08-04T09:13:00.661Z,31.1
2022-08-04T09:14:01.245Z,30.9
2022-08-04T09:15:00.814Z,30.9
2022-08-04T09:16:01.384Z,31.3
2022-08-04T09:17:00.955Z,31.5
2022-08-04T09:18:01.527Z,31.7
2022-08-04T09:19:01.120Z,31.8
2022-08-04T09:20:00.689Z,31.9
2022-08-04T09:21:01.265Z,32.2
2022-08-04T09:22:00.841Z,32.3
2022-08-04T09:23:01.413Z,32.1
2022-08-04T09:24:01.000Z,32.3
2022-08-04T09:25:01.570Z,31.9
2022-08-04T09:26:01.159Z,31.8
2022-08-04T09:27:00.769Z,31.7
2022-08-04T09:28:05.816Z,31.6
2022-08-04T09:29:00.848Z,31.7
2022-08-04T09:30:01.421Z,31.6
2022-08-04T09:31:01.011Z,31.2
2022-08-04T09:32:06.518Z,31.4
2022-08-04T09:33:01.113Z,31.6
2022-08-04T09:34:00.682Z,31.5
2022-08-04T09:35:03.386Z,31.5
2022-08-04T09:36:00.805Z,31.9
2022-08-04T09:37:01.388Z,31.6
2022-08-04T09:38:00.960Z,31.8
2022-08-04T09:39:01.602Z,31.5
2022-08-04T09:40:01.177Z,31.6
2022-08-04T09:41:01.425Z,31.7
2022-08-04T09:42:00.769Z,32.1
2022-08-04T09:43:01.343Z,32.4
2022-08-04T09:44:43.293Z,32.4
2022-08-04T09:45:05.951Z,32.3
2022-08-04T09:46:00.963Z,32.4
2022-08-04T09:47:01.426Z,32.5
2022-08-04T09:48:00.996Z,32.7
2022-08-04T09:49:01.568Z,32.7
2022-08-04T09:50:01.162Z,32.9
2022-08-04T09:51:00.729Z,32.7
2022-08-04T09:52:01.304Z,32.6
2022-08-04T09:53:00.874Z,32.3
2022-08-04T09:54:01.449Z,32.3
2022-08-04T09:55:01.034Z,32.6
2022-08-04T09:56:03.396Z,32.8
2022-08-04T09:57:01.141Z,32.9
2022-08-04T09:58:00.712Z,33.1
2022-08-04T09:59:01.295Z,33
2022-08-04T10:00:01.764Z,33.1
2022-08-04T10:01:01.512Z,33.2
2022-08-04T10:02:01.130Z,33.4
2022-08-04T10:03:01.752Z,33.5
2022-08-04T10:04:01.354Z,33.4
2022-08-04T10:05:00.918Z,33.4
2022-08-04T10:06:01.511Z,33.3
2022-08-04T10:07:01.098Z,33.3
2022-08-04T10:08:10.983Z,33.4
2022-08-04T10:09:01.207Z,33.1
2022-08-04T10:10:00.782Z,33
2022-08-04T10:11:01.374Z,33.1
2022-08-04T10:12:00.943Z,33.3
2022-08-04T10:13:01.517Z,33.4
2022-08-04T10:14:00.756Z,33.1
2022-08-04T10:15:01.332Z,32.8
2022-08-04T10:16:00.917Z,33.3
2022-08-04T10:17:01.501Z,33.4
2022-08-04T10:18:01.074Z,33.4
2022-08-04T10:19:07.886Z,33.4
2022-08-04T10:20:01.181Z,33.7
2022-08-04T10:21:06.939Z,33.5
2022-08-04T10:22:27.518Z,33.7
2022-08-04T10:23:10.886Z,33.7
2022-08-04T10:24:01.374Z,33.6
2022-08-04T10:25:00.948Z,34
2022-08-04T10:26:05.148Z,33.9
2022-08-04T10:27:01.074Z,33.6
2022-08-04T10:28:01.648Z,33.8
2022-08-04T10:29:01.234Z,33.7
2022-08-04T10:30:00.848Z,33.3
2022-08-04T10:31:01.392Z,33.3
2022-08-04T10:32:00.966Z,33.7
2022-08-04T10:33:01.562Z,33.6
2022-08-04T10:34:01.136Z,33.4
2022-08-04T10:35:00.708Z,33.3
2022-08-04T10:36:01.282Z,33.4
2022-08-04T10:37:00.872Z,33.3
2022-08-04T10:38:02.340Z,33.2
2022-08-04T10:39:01.103Z,33.3
2022-08-04T10:40:01.727Z,33.4
2022-08-04T10:41:01.364Z,33.6
2022-08-04T10:42:00.905Z,33.4
2022-08-04T10:43:01.478Z,33.3
2022-08-04T10:44:01.048Z,33.4
2022-08-04T10:45:01.634Z,33.3
2022-08-04T10:46:01.225Z,33.2
2022-08-04T10:47:00.796Z,33.2
2022-08-04T10:48:01.758Z,33.3
2022-08-04T10:49:01.016Z,33
2022-08-04T10:50:01.595Z,32.8
2022-08-04T10:51:01.184Z,32.9
2022-08-04T10:52:00.758Z,32.9
2022-08-04T10:53:01.339Z,32.7
2022-08-04T10:54:00.909Z,32.7
2022-08-04T10:55:01.480Z,32.6
2022-08-04T10:56:06.047Z,32.6
2022-08-04T10:57:01.599Z,32.5
2022-08-04T10:58:01.176Z,32.4
2022-08-04T10:59:00.756Z,32.5
2022-08-04T11:00:03.651Z,32.7
2022-08-04T11:01:00.887Z,32.7
2022-08-04T11:02:03.680Z,32.7
2022-08-04T11:03:01.163Z,32.7
2022-08-04T11:04:01.707Z,32.8
2022-08-04T11:05:01.434Z,33
2022-08-04T11:06:00.967Z,33.1
2022-08-04T11:07:01.539Z,33.2
2022-08-04T11:08:01.114Z,33
2022-08-04T11:09:01.699Z,33.1
2022-08-04T11:10:01.276Z,33.2
2022-08-04T11:11:00.866Z,33.3
2022-08-04T11:12:02.338Z,33.4
2022-08-04T11:13:00.979Z,33.8
2022-08-04T11:14:01.553Z,33.9
2022-08-04T11:15:01.289Z,34
2022-08-04T11:16:01.734Z,34
2022-08-04T11:17:01.325Z,33.9
2022-08-04T11:18:00.899Z,33.7
2022-08-04T11:19:01.472Z,33.6
2022-08-04T11:20:18.507Z,33.5
2022-08-04T11:21:01.599Z,33.5
2022-08-04T11:22:01.175Z,33.5
2022-08-04T11:23:01.716Z,33.3
2022-08-04T11:24:01.302Z,33.6
2022-08-04T11:25:00.877Z,33.6
2022-08-04T11:26:01.470Z,33.5
2022-08-04T11:27:01.045Z,33.3
2022-08-04T11:28:01.619Z,33.3
2022-08-04T11:29:03.482Z,33.3
2022-08-04T11:30:00.730Z,33.3
2022-08-04T11:31:01.322Z,33.3
2022-08-04T11:32:00.895Z,33.3
2022-08-04T11:33:01.468Z,33.4
2022-08-04T11:34:01.043Z,33.7
2022-08-04T11:35:01.614Z,33.8
2022-08-04T11:36:01.202Z,33.6
2022-08-04T11:37:00.792Z,33.7
2022-08-04T11:38:01.355Z,33.9
2022-08-04T11:39:00.974Z,34.1
2022-08-04T11:40:01.526Z,33.7
2022-08-04T11:41:02.363Z,33.6
2022-08-04T11:42:01.330Z,33.6
2022-08-04T11:43:00.908Z,33.8
2022-08-04T11:44:05.732Z,33.5
2022-08-04T11:45:01.022Z,33.3
2022-08-04T11:46:01.613Z,33.2
2022-08-04T11:47:01.187Z,33.3
2022-08-04T11:48:00.765Z,33.5
2022-08-04T11:49:01.343Z,33.6
2022-08-04T11:50:00.932Z,33.7
2022-08-04T11:51:01.502Z,33.6
2022-08-04T11:52:01.074Z,33.5
2022-08-04T11:53:01.653Z,33.5
2022-08-04T11:54:01.227Z,33.3
2022-08-04T11:55:00.824Z,33.3
2022-08-04T11:56:07.271Z,33.3
2022-08-04T11:57:00.938Z,33.3
2022-08-04T11:58:01.512Z,33.4
2022-08-04T11:59:01.086Z,33.3
2022-08-04T12:00:01.674Z,33.3
2022-08-04T12:01:01.210Z,33.3
2022-08-04T12:02:00.877Z,33.3
2022-08-04T12:03:01.364Z,33.2
2022-08-04T12:04:04.083Z,33.3
2022-08-04T12:05:01.543Z,33.4
2022-08-04T12:06:01.359Z,33.4
2022-08-04T12:07:21.583Z,33.4
2022-08-04T12:08:01.266Z,33.4
2022-08-04T12:09:00.844Z,33.7
2022-08-04T12:10:01.418Z,33.7
2022-08-04T12:11:00.992Z,33.6
2022-08-04T12:12:01.566Z,33.5
2022-08-04T12:13:01.161Z,33.1
2022-08-04T12:14:01.729Z,33
2022-08-04T12:15:01.305Z,33
2022-08-04T12:16:00.877Z,33.1
2022-08-04T12:17:01.450Z,33
2022-08-04T12:18:02.559Z,32.7
2022-08-04T12:19:01.668Z,32.8
2022-08-04T12:20:04.720Z,32.7
2022-08-04T12:21:01.333Z,32.8
2022-08-04T12:22:01.457Z,32.9
2022-08-04T12:23:01.188Z,32.8
2022-08-04T12:24:01.725Z,32.9
2022-08-04T12:25:01.321Z,33.1
2022-08-04T12:26:00.896Z,32.8
2022-08-04T12:27:01.474Z,32.7
2022-08-04T12:28:01.051Z,32.5
2022-08-04T12:29:10.411Z,32.2
2022-08-04T12:30:57.598Z,32.1
2022-08-04T12:31:05.183Z,31.9
2022-08-04T12:32:01.271Z,31.9
2022-08-04T12:33:00.847Z,32
2022-08-04T12:34:03.949Z,32
2022-08-04T12:35:00.981Z,31.9
2022-08-04T12:36:11.489Z,32
2022-08-04T12:37:01.125Z,31.9
2022-08-04T12:38:01.716Z,31.7
2022-08-04T12:39:01.403Z,31.8
2022-08-04T12:40:21.844Z,31.8
2022-08-04T12:41:01.514Z,31.4
2022-08-04T12:42:01.094Z,31.4
2022-08-04T12:43:01.668Z,31.3
2022-08-04T12:44:01.244Z,31.3
2022-08-04T12:45:00.817Z,31.3
2022-08-04T12:46:01.413Z,31.2
2022-08-04T12:47:25.638Z,31.3
2022-08-04T12:48:01.535Z,31.2
2022-08-04T12:49:01.113Z,31.2
2022-08-04T12:50:02.609Z,31.2
2022-08-04T12:51:01.451Z,31.2
2022-08-04T12:52:07.130Z,31.1
2022-08-04T12:53:02.976Z,31.2
2022-08-04T12:54:00.983Z,31.1
2022-08-04T12:55:01.558Z,31.1
2022-08-04T12:56:02.042Z,31.1
2022-08-04T12:57:00.974Z,31.2
2022-08-04T12:58:01.290Z,31.3
2022-08-04T12:59:00.882Z,31.4
2022-08-04T13:00:01.460Z,31.5
2022-08-04T13:01:01.169Z,31.6
2022-08-04T13:02:07.600Z,31.6
2022-08-04T13:03:01.145Z,31.5
2022-08-04T13:04:01.721Z,31.5
2022-08-04T13:05:02.008Z,31.6
2022-08-04T13:06:01.694Z,31.4
2022-08-04T13:07:01.297Z,31.4
2022-08-04T13:08:00.882Z,31.4
2022-08-04T13:09:01.457Z,31.5
2022-08-04T13:10:01.036Z,31.3
2022-08-04T13:11:01.607Z,31.4
2022-08-04T13:12:01.915Z,31.2
2022-08-04T13:13:01.069Z,31.3
2022-08-04T13:14:24.680Z,31.3
2022-08-04T13:15:08.645Z,31.4
2022-08-04T13:16:01.426Z,31.3
2022-08-04T13:17:01.020Z,31.1
2022-08-04T13:18:01.593Z,31
2022-08-04T13:19:05.299Z,31
2022-08-04T13:20:01.704Z,30.6
2022-08-04T13:21:01.278Z,30.8
2022-08-04T13:22:02.484Z,30.8
2022-08-04T13:23:01.370Z,30.8
2022-08-04T13:24:11.160Z,31